ローマ/フィウミチーノ の空港の天気 - METARとTAF

ローマ・レオナルド・ダ・ビンチ国際空港 ( LIRF / FCO ) - イタリア ローマ
飛行場実況気象(Metar)
観測時間10/22 12:50 CEST (10/22 10:50 UTC)
風向・風速東南東 2m/s
視程10km以上
天気現象
なし
気温21℃
湿度56%
気圧1025hPa
METARLIRF 221050Z 11004KT 060V150 CAVOK 21/12 Q1025 NOSIG
過去の天気等 Google飛行場航空写真 Wunderground天気予報

過去48時間のMETAR

飛行場予報(TAF)
発表時間: 10/22 07:00 CEST (10/22 05:00 UTC)
予報対象時間: 22日8時 CEST ~ 23日14時 CEST
風向・風速東 3m/s
視程10km以上
少しの雲 雲底高度 910m
22日11時 CEST ~ 22日13時 CEST に徐々に
風向・風速南南東 6m/s
22日19時 CEST ~ 22日21時 CEST に徐々に
風向・風速東 3m/s
23日10時 CEST ~ 23日12時 CEST に徐々に
風向・風速南南東 6m/s
TAF LIRF 220500Z 2206/2312 10006KT 9999 FEW030
BECMG 2209/2211 16012KT
BECMG 2217/2219 10006KT
BECMG 2308/2310 16012KT